Time;durP1;ratioP1;P1;durP2;ratioP2;P2;SDS_P1;SDS_P2;PMS_P1;PMS_P2;Temp;Humidity;BMP_temperature;BMP_pressure;BME280_temperature;BME280_humidity;BME280_pressure;Samples;Min_cycle;Max_cycle;Signal;HPM_P1;HPM_P2
2021/01/14 00:00:19;;;;;;;1.10;1.10;;;6.40;99.90;;;;;;5114043;28;20165;-77
2021/01/14 00:02:44;;;;;;;1.83;1.15;;;6.40;99.90;;;;;;5113926;28;20173;-77
2021/01/14 00:05:11;;;;;;;2.03;1.92;;;6.50;99.90;;;;;;5095185;28;20537;-78
2021/01/14 00:07:37;;;;;;;0.77;0.77;;;6.50;99.90;;;;;;5113910;28;20165;-78
2021/01/14 00:10:05;;;;;;;1.25;1.25;;;6.60;99.90;;;;;;5113871;28;20266;-78
2021/01/14 00:12:31;;;;;;;0.63;0.63;;;6.60;99.90;;;;;;5113700;28;20196;-78
2021/01/14 00:14:56;;;;;;;1.60;1.05;;;6.60;99.90;;;;;;5113572;28;20686;-77
2021/01/14 00:17:22;;;;;;;0.32;0.32;;;6.60;99.90;;;;;;5113824;28;20155;-77
2021/01/14 00:19:48;;;;;;;6.43;1.33;;;6.60;99.90;;;;;;5113634;28;20556;-77
2021/01/14 00:22:13;;;;;;;0.85;0.85;;;6.50;99.90;;;;;;5113704;28;20165;-77
2021/01/14 00:24:39;;;;;;;1.25;1.25;;;6.50;99.90;;;;;;5113598;28;20569;-78
2021/01/14 00:27:04;;;;;;;2.50;2.15;;;6.40;99.90;;;;;;5113618;28;20168;-78
2021/01/14 00:29:31;;;;;;;0.82;0.82;;;6.40;99.90;;;;;;5113344;28;20643;-77
2021/01/14 00:31:57;;;;;;;0.90;0.80;;;6.40;99.90;;;;;;5113557;28;20172;-77
2021/01/14 00:34:23;;;;;;;0.95;0.93;;;6.40;99.90;;;;;;5113205;28;20305;-77
2021/01/14 00:39:32;;;;;;;0.70;0.70;;;6.60;99.90;;;;;;5113436;28;20168;-77
2021/01/14 00:41:58;;;;;;;0.82;0.70;;;6.70;99.90;;;;;;5113339;28;20527;-77
2021/01/14 00:44:24;;;;;;;2.20;2.10;;;6.50;99.90;;;;;;5095091;28;20184;-78
2021/01/14 00:46:57;;;;;;;3.63;2.10;;;6.40;99.90;;;;;;5094904;28;20187;-77
2021/01/14 00:49:23;;;;;;;0.32;0.32;;;6.40;99.90;;;;;;5113421;28;20162;-77
2021/01/14 00:51:49;;;;;;;1.48;1.38;;;6.50;99.90;;;;;;5113357;28;20176;-77
2021/01/14 00:54:15;;;;;;;1.10;1.00;;;6.50;99.90;;;;;;5113160;28;20708;-78
2021/01/14 00:56:40;;;;;;;2.58;1.65;;;6.60;99.90;;;;;;5113452;28;20157;-77
2021/01/14 00:59:07;;;;;;;1.25;0.73;;;6.60;99.90;;;;;;5094788;28;20612;-77
2021/01/14 01:01:34;;;;;;;0.50;0.50;;;6.50;99.90;;;;;;5112901;28;20185;-77
2021/01/14 01:04:00;;;;;;;1.05;1.05;;;6.40;99.90;;;;;;5113541;28;20218;-78
2021/01/14 01:06:36;;;;;;;0.75;0.75;;;6.40;99.90;;;;;;5113275;28;20612;-77
2021/01/14 01:09:03;;;;;;;0.50;0.50;;;6.50;99.90;;;;;;5113206;28;20222;-77
2021/01/14 01:11:29;;;;;;;0.22;0.22;;;6.60;99.90;;;;;;5113135;28;20167;-78
2021/01/14 01:13:56;;;;;;;1.00;1.00;;;6.50;99.90;;;;;;5094470;28;20194;-78
2021/01/14 01:16:21;;;;;;;0.68;0.68;;;6.20;99.90;;;;;;5114665;28;20256;-78
2021/01/14 01:18:47;;;;;;;2.00;0.88;;;6.20;99.90;;;;;;5117015;28;20562;-78
2021/01/14 01:21:13;;;;;;;1.48;1.38;;;6.30;99.90;;;;;;5117072;28;20178;-77
2021/01/14 01:23:39;;;;;;;0.57;0.57;;;6.30;99.90;;;;;;5117070;28;20156;-77
2021/01/14 01:26:05;;;;;;;1.10;1.08;;;6.40;99.90;;;;;;5098627;28;20276;-78
2021/01/14 01:28:31;;;;;;;0.80;0.80;;;6.40;99.90;;;;;;5098703;28;20636;-77
2021/01/14 01:30:57;;;;;;;2.47;0.80;;;6.20;99.90;;;;;;5116906;28;20651;-77
2021/01/14 01:33:26;;;;;;;0.60;0.60;;;6.30;99.90;;;;;;5116616;28;20250;-77
2021/01/14 01:35:52;;;;;;;0.52;0.52;;;6.20;99.90;;;;;;5098554;28;20243;-78
2021/01/14 01:38:18;;;;;;;1.38;1.33;;;6.10;99.90;;;;;;5098338;28;20241;-78
2021/01/14 01:40:44;;;;;;;0.30;0.30;;;6.10;99.90;;;;;;5116700;28;20193;-77
2021/01/14 01:43:10;;;;;;;1.13;1.13;;;6.10;99.90;;;;;;5116525;28;20153;-77
2021/01/14 01:45:36;;;;;;;0.60;0.60;;;6.20;99.90;;;;;;5116408;28;20200;-77
2021/01/14 01:48:03;;;;;;;0.73;0.73;;;6.10;99.90;;;;;;5098322;28;20170;-77
2021/01/14 01:50:29;;;;;;;1.15;0.65;;;6.10;99.90;;;;;;5116725;28;20169;-77
2021/01/14 01:52:55;;;;;;;0.60;0.60;;;6.10;99.90;;;;;;5098111;28;20184;-77
2021/01/14 01:55:22;;;;;;;0.28;0.28;;;6.00;99.90;;;;;;5116339;28;20260;-78
2021/01/14 01:57:48;;;;;;;4.03;1.58;;;5.90;99.90;;;;;;5098042;28;20205;-76
2021/01/14 02:00:14;;;;;;;6.88;0.93;;;6.00;99.90;;;;;;5098180;28;20297;-78
2021/01/14 02:02:40;;;;;;;0.85;0.85;;;5.90;99.90;;;;;;5116270;28;20161;-78
2021/01/14 02:05:07;;;;;;;0.22;0.22;;;6.00;99.90;;;;;;5116132;28;20237;-77
2021/01/14 02:08:05;;;;;;;16.23;1.27;;;6.00;99.90;;;;;;5097933;28;20277;-75
2021/01/14 02:10:38;;;;;;;0.40;0.40;;;6.10;99.90;;;;;;5116329;28;20157;-76
2021/01/14 02:13:29;;;;;;;1.02;0.93;;;6.10;99.90;;;;;;5097773;28;20165;-76
2021/01/14 02:15:58;;;;;;;0.28;0.28;;;6.10;99.90;;;;;;5115683;28;20243;-76
2021/01/14 02:18:24;;;;;;;0.85;0.85;;;6.30;99.90;;;;;;5116099;28;20185;-75
2021/01/14 02:20:54;;;;;;;1.15;0.82;;;6.20;99.90;;;;;;5116040;28;20158;-76
2021/01/14 02:23:52;;;;;;;1.20;1.20;;;6.20;99.90;;;;;;5115937;28;20161;-75
2021/01/14 02:26:23;;;;;;;4.47;2.42;;;6.00;99.90;;;;;;5115470;28;20189;-77
2021/01/14 02:28:51;;;;;;;1.25;0.93;;;6.00;99.90;;;;;;5115802;28;20624;-78
2021/01/14 02:31:16;;;;;;;1.85;1.75;;;6.10;99.90;;;;;;5115762;28;20199;-76
2021/01/14 02:33:43;;;;;;;1.08;1.02;;;6.00;99.90;;;;;;5115554;28;20266;-78
2021/01/14 02:36:09;;;;;;;0.47;0.47;;;6.10;99.90;;;;;;5115563;28;20189;-76
2021/01/14 02:38:36;;;;;;;0.47;0.47;;;6.10;99.90;;;;;;5115572;28;20165;-75
2021/01/14 02:41:01;;;;;;;1.27;1.17;;;6.10;99.90;;;;;;5115604;28;20278;-76
2021/01/14 02:43:27;;;;;;;0.57;0.57;;;6.20;99.90;;;;;;5115448;28;20191;-76
2021/01/14 02:45:53;;;;;;;0.50;0.50;;;6.20;99.90;;;;;;5097173;28;20185;-78
2021/01/14 02:48:49;;;;;;;0.88;0.88;;;6.10;99.90;;;;;;5097116;28;20222;-77
2021/01/14 02:51:34;;;;;;;2.00;1.90;;;6.10;99.90;;;;;;5106371;28;20177;-77
2021/01/14 02:54:01;;;;;;;1.95;1.67;;;6.10;99.90;;;;;;5115309;28;20193;-77
2021/01/14 02:56:28;;;;;;;0.32;0.32;;;6.20;99.90;;;;;;5115453;28;20513;-78
2021/01/14 02:58:56;;;;;;;0.63;0.63;;;6.10;99.90;;;;;;5096873;28;20613;-78
2021/01/14 03:01:22;;;;;;;1.65;1.55;;;6.10;99.90;;;;;;5096944;28;20504;-77
2021/01/14 03:03:47;;;;;;;0.60;0.60;;;6.00;99.90;;;;;;5115340;28;20179;-77
2021/01/14 03:06:13;;;;;;;25.10;1.95;;;6.20;99.90;;;;;;5114964;28;20209;-77
2021/01/14 03:08:39;;;;;;;0.60;0.60;;;6.40;99.90;;;;;;5114998;28;20673;-77
2021/01/14 03:11:04;;;;;;;8.77;2.05;;;6.20;99.90;;;;;;5114863;28;20252;-77
2021/01/14 03:13:30;;;;;;;2.17;1.42;;;6.40;99.90;;;;;;5114888;28;20182;-76
2021/01/14 03:15:55;;;;;;;3.40;1.05;;;6.20;99.90;;;;;;5096376;28;20561;-76
2021/01/14 03:18:21;;;;;;;0.50;0.50;;;6.20;99.90;;;;;;5114723;28;20169;-75
2021/01/14 03:20:49;;;;;;;1.75;1.38;;;6.40;99.90;;;;;;5114710;28;20166;-77
2021/01/14 03:23:14;;;;;;;1.83;1.58;;;6.40;99.90;;;;;;5096460;28;20169;-76
2021/01/14 03:25:40;;;;;;;1.30;1.20;;;6.20;99.90;;;;;;5114581;28;20234;-76
2021/01/14 03:28:06;;;;;;;2.40;0.88;;;6.20;99.90;;;;;;5114632;28;20225;-76
2021/01/14 03:30:31;;;;;;;0.50;0.50;;;6.10;99.90;;;;;;5096402;28;20169;-76
2021/01/14 03:32:57;;;;;;;0.60;0.60;;;6.10;99.90;;;;;;5114229;28;20169;-76
2021/01/14 03:35:24;;;;;;;0.55;0.55;;;6.00;99.90;;;;;;5114327;28;20205;-76
2021/01/14 03:37:49;;;;;;;2.00;0.93;;;6.10;99.90;;;;;;5114333;28;20624;-76
2021/01/14 03:40:16;;;;;;;2.90;1.33;;;6.30;99.90;;;;;;5095430;28;20176;-76
2021/01/14 03:42:42;;;;;;;1.25;1.25;;;6.30;99.90;;;;;;5114230;28;20157;-76
2021/01/14 03:45:08;;;;;;;3.30;0.93;;;6.30;99.90;;;;;;5095921;28;20177;-76
2021/01/14 03:47:34;;;;;;;1.75;1.65;;;6.10;99.90;;;;;;5114189;28;20165;-76
2021/01/14 03:50:00;;;;;;;3.05;2.35;;;6.20;99.90;;;;;;5114295;28;20651;-75
2021/01/14 03:52:26;;;;;;;0.40;0.40;;;6.50;99.90;;;;;;5114200;28;20195;-76
2021/01/14 03:54:52;;;;;;;1.17;0.77;;;6.60;99.90;;;;;;5113946;28;20201;-76
2021/01/14 03:57:17;;;;;;;0.30;0.30;;;6.90;99.90;;;;;;5114619;28;20167;-76
2021/01/14 03:59:43;;;;;;;0.70;0.70;;;6.60;99.90;;;;;;5114074;28;20248;-77
2021/01/14 04:02:09;;;;;;;0.68;0.68;;;6.30;99.90;;;;;;5095550;28;20219;-76
2021/01/14 04:04:43;;;;;;;0.50;0.50;;;6.20;99.90;;;;;;5113839;28;20272;-77
2021/01/14 04:07:13;;;;;;;0.75;0.75;;;6.20;99.90;;;;;;5113981;28;20497;-76
2021/01/14 04:09:40;;;;;;;0.70;0.70;;;6.40;99.90;;;;;;5095614;28;20654;-76
2021/01/14 04:12:06;;;;;;;0.22;0.22;;;6.40;99.90;;;;;;5095502;28;20165;-77
2021/01/14 04:14:32;;;;;;;0.68;0.68;;;6.60;99.90;;;;;;5113718;28;20213;-76
2021/01/14 04:16:58;;;;;;;1.35;1.20;;;6.70;99.90;;;;;;5113809;28;20214;-76
2021/01/14 04:19:24;;;;;;;0.93;0.52;;;6.80;99.90;;;;;;5113817;28;20244;-76
2021/01/14 04:21:49;;;;;;;0.38;0.38;;;6.80;99.90;;;;;;5113743;28;20658;-75
2021/01/14 04:24:15;;;;;;;0.65;0.65;;;6.60;99.90;;;;;;5113408;28;20558;-76
2021/01/14 04:26:41;;;;;;;0.73;0.60;;;6.40;99.90;;;;;;5113781;28;20643;-76
2021/01/14 04:29:08;;;;;;;0.50;0.50;;;6.60;99.90;;;;;;5113579;28;20624;-76
2021/01/14 04:31:34;;;;;;;0.65;0.65;;;6.60;99.90;;;;;;5114008;28;20210;-75
2021/01/14 04:34:00;;;;;;;0.40;0.40;;;6.50;99.90;;;;;;5113378;28;20612;-76
2021/01/14 04:36:26;;;;;;;0.22;0.22;;;6.50;99.90;;;;;;5113459;28;20188;-76
2021/01/14 04:38:51;;;;;;;0.55;0.55;;;6.40;99.90;;;;;;5113542;28;20198;-76
2021/01/14 04:41:18;;;;;;;0.20;0.20;;;6.60;99.90;;;;;;5095135;28;20193;-76
2021/01/14 04:43:45;;;;;;;1.88;0.95;;;6.50;99.90;;;;;;5113515;28;20164;-76
2021/01/14 04:46:12;;;;;;;0.80;0.63;;;6.50;99.90;;;;;;5113339;28;20652;-77
2021/01/14 04:48:45;;;;;;;0.63;0.63;;;6.50;99.90;;;;;;5095090;28;20263;-77
2021/01/14 04:51:19;;;;;;;0.40;0.40;;;6.60;99.90;;;;;;5098185;28;20165;-76
2021/01/14 04:53:48;;;;;;;0.20;0.20;;;6.50;99.90;;;;;;5117459;28;20192;-76
2021/01/14 04:56:16;;;;;;;0.30;0.30;;;6.50;99.90;;;;;;5117553;28;20184;-77
2021/01/14 04:58:48;;;;;;;0.70;0.70;;;6.10;99.90;;;;;;5117433;28;20161;-76
2021/01/14 05:01:24;;;;;;;0.30;0.30;;;6.00;99.90;;;;;;5117429;28;20696;-76
2021/01/14 05:03:52;;;;;;;0.75;0.75;;;5.80;99.90;;;;;;5117632;28;20181;-77
2021/01/14 05:06:19;;;;;;;0.30;0.30;;;5.30;99.90;;;;;;5099172;28;20604;-77
2021/01/14 05:08:46;;;;;;;0.40;0.40;;;5.20;99.90;;;;;;5117403;28;20165;-77
2021/01/14 05:11:15;;;;;;;0.20;0.20;;;5.00;99.90;;;;;;5098891;28;20506;-78
2021/01/14 05:13:41;;;;;;;1.85;1.45;;;4.90;99.90;;;;;;5117199;28;20192;-77
2021/01/14 05:16:07;;;;;;;0.20;0.20;;;4.70;99.90;;;;;;5117028;28;20278;-78
2021/01/14 05:18:34;;;;;;;1.40;0.73;;;4.60;99.90;;;;;;5117037;28;20169;-77
2021/01/14 05:21:00;;;;;;;0.30;0.30;;;4.50;99.90;;;;;;5117089;28;20153;-78
2021/01/14 05:23:26;;;;;;;1.00;1.00;;;4.40;99.90;;;;;;5117148;28;20153;-76
2021/01/14 05:25:52;;;;;;;14.38;1.30;;;4.20;99.90;;;;;;5117004;28;20196;-77
2021/01/14 05:28:22;;;;;;;1.25;0.73;;;4.00;99.90;;;;;;5116809;28;20157;-77
2021/01/14 05:30:49;;;;;;;0.22;0.22;;;3.90;99.90;;;;;;5116831;28;20561;-78
2021/01/14 05:33:20;;;;;;;0.73;0.73;;;4.00;99.90;;;;;;5116468;28;20291;-78
2021/01/14 05:35:51;;;;;;;0.45;0.45;;;3.90;99.90;;;;;;5116625;28;20185;-77
2021/01/14 05:38:37;;;;;;;1.30;0.63;;;3.70;99.90;;;;;;5116576;28;20157;-78
2021/01/14 05:41:21;;;;;;;0.20;0.20;;;3.50;99.90;;;;;;5116021;28;20248;-78
2021/01/14 05:43:54;;;;;;;0.40;0.40;;;3.40;99.90;;;;;;5116468;28;20158;-78
2021/01/14 05:46:21;;;;;;;0.20;0.20;;;3.30;99.90;;;;;;5116320;28;20252;-78
2021/01/14 05:48:48;;;;;;;0.20;0.20;;;3.40;99.90;;;;;;5116421;28;20267;-77
2021/01/14 05:51:19;;;;;;;0.30;0.30;;;3.40;99.90;;;;;;5097940;28;20169;-78
2021/01/14 05:54:03;;;;;;;0.32;0.32;;;3.40;99.90;;;;;;5116383;28;20272;-77
2021/01/14 05:56:50;;;;;;;12.73;1.50;;;3.40;99.90;;;;;;5116242;28;20192;-77
2021/01/14 05:59:19;;;;;;;0.20;0.20;;;3.30;99.90;;;;;;5097835;28;20161;-77
2021/01/14 06:01:57;;;;;;;0.43;0.43;;;3.30;99.90;;;;;;5097049;28;20173;-78
2021/01/14 06:04:25;;;;;;;0.60;0.60;;;3.10;99.90;;;;;;5116340;28;20263;-77
2021/01/14 06:06:52;;;;;;;0.40;0.40;;;3.20;99.90;;;;;;5115826;28;20149;-77
2021/01/14 06:09:19;;;;;;;0.63;0.63;;;3.00;99.90;;;;;;5097855;28;20171;-78
2021/01/14 06:11:46;;;;;;;0.45;0.45;;;2.90;99.90;;;;;;5115926;28;20169;-78
2021/01/14 06:14:24;;;;;;;0.60;0.60;;;2.70;99.90;;;;;;5097521;28;20212;-77
2021/01/14 06:16:50;;;;;;;0.30;0.30;;;2.40;99.90;;;;;;5097394;28;20642;-78
2021/01/14 06:19:16;;;;;;;0.30;0.30;;;2.30;99.90;;;;;;5115701;28;20169;-78
2021/01/14 06:21:49;;;;;;;0.27;0.27;;;2.40;99.90;;;;;;5115854;28;20214;-77
2021/01/14 06:24:25;;;;;;;0.60;0.60;;;2.40;99.90;;;;;;5115547;28;20245;-77
2021/01/14 06:26:53;;;;;;;0.20;0.20;;;2.40;99.90;;;;;;5115455;28;20141;-78
2021/01/14 06:29:29;;;;;;;2.00;1.90;;;2.30;99.90;;;;;;5097348;28;20214;-77
2021/01/14 06:32:05;;;;;;;0.70;0.57;;;2.40;99.90;;;;;;5097147;28;20240;-77
2021/01/14 06:34:32;;;;;;;0.20;0.20;;;2.20;99.90;;;;;;5115269;28;20692;-77
2021/01/14 06:37:09;;;;;;;0.25;0.25;;;2.40;99.90;;;;;;5115304;28;20150;-77
2021/01/14 06:39:40;;;;;;;2.33;0.55;;;2.40;99.90;;;;;;5096920;28;20221;-77
2021/01/14 06:42:26;;;;;;;0.35;0.35;;;2.40;99.90;;;;;;5096706;28;20166;-78
2021/01/14 06:45:02;;;;;;;0.30;0.30;;;2.60;99.90;;;;;;5115193;28;20184;-77
2021/01/14 06:47:35;;;;;;;0.43;0.43;;;2.60;99.90;;;;;;5115201;28;20160;-77
2021/01/14 06:50:20;;;;;;;0.40;0.40;;;2.50;99.90;;;;;;5115139;28;20161;-78
2021/01/14 06:53:02;;;;;;;0.68;0.68;;;2.40;99.90;;;;;;5114251;28;20165;-76
2021/01/14 06:55:30;;;;;;;0.60;0.60;;;2.50;99.90;;;;;;5114332;28;20288;-77
2021/01/14 06:58:05;;;;;;;0.20;0.20;;;2.60;99.90;;;;;;5114635;28;20565;-78
2021/01/14 07:00:32;;;;;;;4.05;1.02;;;2.50;99.90;;;;;;5114581;28;20157;-77
2021/01/14 07:03:13;;;;;;;0.20;0.20;;;2.50;99.90;;;;;;5114588;28;20173;-76
2021/01/14 07:05:45;;;;;;;1.70;1.40;;;2.60;99.90;;;;;;5114099;28;20206;-76
2021/01/14 07:08:33;;;;;;;1.25;1.10;;;2.70;99.90;;;;;;5114618;28;20161;-76
2021/01/14 07:11:16;;;;;;;0.20;0.20;;;2.70;99.90;;;;;;5114489;28;20154;-76
2021/01/14 07:13:47;;;;;;;0.77;0.77;;;2.70;99.90;;;;;;5113279;28;20214;-75
2021/01/14 07:16:15;;;;;;;0.38;0.38;;;2.70;99.90;;;;;;5114306;28;20611;-76
2021/01/14 07:18:43;;;;;;;0.30;0.30;;;2.70;99.90;;;;;;5114431;28;20604;-76
2021/01/14 07:21:15;;;;;;;0.22;0.22;;;2.70;99.90;;;;;;5114079;28;20166;-77
2021/01/14 07:23:56;;;;;;;0.20;0.20;;;2.70;99.90;;;;;;5114236;28;20252;-76
2021/01/14 07:26:23;;;;;;;0.20;0.20;;;2.80;99.90;;;;;;5113899;28;20735;-76
2021/01/14 07:28:50;;;;;;;0.30;0.30;;;2.80;99.90;;;;;;5096075;28;20252;-75
2021/01/14 07:31:20;;;;;;;0.30;0.30;;;2.90;99.90;;;;;;5114281;28;20627;-76
2021/01/14 07:33:46;;;;;;;0.20;0.20;;;2.80;99.90;;;;;;5113992;28;20225;-76
2021/01/14 07:36:29;;;;;;;0.65;0.65;;;2.80;99.90;;;;;;5113975;28;20561;-77
2021/01/14 07:38:57;;;;;;;0.50;0.50;;;2.90;99.90;;;;;;5095591;28;20165;-75
2021/01/14 07:41:23;;;;;;;0.50;0.50;;;3.00;99.90;;;;;;5113977;28;20169;-76
2021/01/14 07:43:50;;;;;;;0.28;0.28;;;3.00;99.90;;;;;;5113608;28;20218;-76
2021/01/14 07:46:27;;;;;;;0.47;0.45;;;3.10;99.90;;;;;;5113907;28;20195;-77
2021/01/14 07:48:54;;;;;;;0.20;0.20;;;3.20;99.90;;;;;;5113723;28;20165;-77
2021/01/14 07:51:20;;;;;;;0.20;0.20;;;3.30;99.90;;;;;;5113769;28;20632;-75
2021/01/14 07:54:06;;;;;;;1.17;0.90;;;3.10;99.90;;;;;;5095553;28;20544;-76
2021/01/14 07:56:44;;;;;;;0.57;0.57;;;3.10;99.90;;;;;;5113649;28;20585;-76
2021/01/14 07:59:10;;;;;;;0.47;0.47;;;3.00;99.90;;;;;;5113971;28;20267;-76
2021/01/14 08:02:06;;;;;;;0.20;0.20;;;3.10;99.90;;;;;;5113843;28;20194;-82
2021/01/14 08:04:44;;;;;;;0.20;0.20;;;3.10;99.90;;;;;;5114052;28;20169;-76
2021/01/14 08:07:24;;;;;;;0.38;0.38;;;3.20;99.90;;;;;;5113585;28;20145;-77
2021/01/14 08:09:52;;;;;;;0.20;0.20;;;3.30;99.90;;;;;;5113669;28;20161;-76
2021/01/14 08:12:26;;;;;;;0.25;0.22;;;3.40;99.90;;;;;;5113689;28;20636;-77
2021/01/14 08:14:52;;;;;;;0.57;0.57;;;3.40;99.90;;;;;;5113208;28;20196;-77
2021/01/14 08:17:26;;;;;;;0.25;0.25;;;3.60;99.90;;;;;;5113579;28;20558;-76
2021/01/14 08:19:53;;;;;;;0.20;0.20;;;3.60;99.90;;;;;;5113547;28;20642;-77
2021/01/14 08:22:19;;;;;;;0.55;0.55;;;3.70;99.90;;;;;;5113565;28;20248;-77
2021/01/14 08:24:52;;;;;;;2.00;0.47;;;3.80;99.90;;;;;;5113237;28;20212;-78
2021/01/14 08:27:20;;;;;;;0.20;0.20;;;3.80;99.90;;;;;;5095222;28;20210;-74
2021/01/14 08:29:58;;;;;;;0.20;0.20;;;3.70;99.90;;;;;;5095349;28;20250;-75
2021/01/14 08:32:31;;;;;;;0.20;0.20;;;3.70;99.90;;;;;;5113354;28;20535;-74
2021/01/14 08:35:24;;;;;;;0.20;0.20;;;3.60;99.90;;;;;;5113088;28;20739;-73
2021/01/14 08:37:52;;;;;;;0.20;0.20;;;3.40;99.90;;;;;;5108340;28;20299;-74
2021/01/14 08:40:23;;;;;;;0.20;0.20;;;3.30;99.90;;;;;;5113460;28;20248;-74
2021/01/14 08:43:08;;;;;;;1.88;1.75;;;3.40;99.90;;;;;;5113077;28;20154;-74
2021/01/14 08:45:51;;;;;;;0.75;0.75;;;3.30;99.90;;;;;;5113316;28;20203;-75
2021/01/14 08:48:30;;;;;;;0.20;0.20;;;3.50;99.90;;;;;;5113237;28;20172;-74
2021/01/14 08:50:56;;;;;;;1.02;1.02;;;3.50;99.90;;;;;;5113215;28;20161;-74
2021/01/14 08:53:22;;;;;;;0.25;0.25;;;3.40;99.90;;;;;;5113554;28;20232;-74
2021/01/14 08:56:04;;;;;;;0.20;0.20;;;3.50;99.90;;;;;;5112815;28;20197;-75
2021/01/14 08:58:43;;;;;;;0.20;0.20;;;3.60;99.90;;;;;;5113201;28;20240;-76
2021/01/14 09:01:17;;;;;;;0.20;0.20;;;3.60;99.90;;;;;;5094446;28;20176;-74
2021/01/14 09:03:45;;;;;;;5.28;1.00;;;3.70;99.90;;;;;;5113299;28;20168;-74
2021/01/14 09:06:11;;;;;;;0.63;0.28;;;3.80;99.90;;;;;;5112735;28;20575;-75
2021/01/14 09:08:38;;;;;;;0.40;0.40;;;3.70;99.90;;;;;;5113098;28;20183;-75
2021/01/14 09:11:04;;;;;;;0.20;0.20;;;3.80;99.90;;;;;;5113207;28;20160;-75
2021/01/14 09:13:31;;;;;;;0.20;0.20;;;3.80;99.90;;;;;;5113049;28;20190;-75
2021/01/14 09:15:58;;;;;;;0.20;0.20;;;3.80;99.90;;;;;;5112926;28;20796;-75
2021/01/14 09:18:40;;;;;;;0.80;0.63;;;3.80;99.90;;;;;;5113074;28;20634;-75
2021/01/14 09:21:06;;;;;;;0.55;0.55;;;3.70;99.90;;;;;;5112841;28;20158;-75
2021/01/14 09:23:34;;;;;;;0.52;0.52;;;3.70;99.90;;;;;;5112801;28;20167;-76
2021/01/14 09:26:02;;;;;;;0.20;0.20;;;3.70;99.90;;;;;;5094575;28;20181;-75
2021/01/14 09:28:29;;;;;;;10.50;0.68;;;3.70;99.90;;;;;;5112973;28;20161;-76
2021/01/14 09:31:01;;;;;;;0.20;0.20;;;3.70;99.90;;;;;;5112941;28;20244;-75
2021/01/14 09:33:29;;;;;;;0.20;0.20;;;3.70;99.90;;;;;;5094463;28;20213;-75
2021/01/14 09:36:03;;;;;;;0.10;0.10;;;3.80;99.90;;;;;;5112599;28;20297;-75
2021/01/14 09:38:30;;;;;;;0.28;0.28;;;3.70;99.90;;;;;;5097650;28;20165;-74
2021/01/14 09:40:56;;;;;;;0.20;0.20;;;3.70;99.90;;;;;;5114307;28;20208;-76
2021/01/14 09:43:24;;;;;;;0.50;0.50;;;3.80;99.90;;;;;;5116040;28;20157;-76
2021/01/14 09:45:50;;;;;;;0.20;0.20;;;3.80;99.90;;;;;;5115950;28;20229;-75
2021/01/14 09:48:19;;;;;;;2.20;2.05;;;4.00;99.90;;;;;;5116185;28;20160;-76
2021/01/14 09:50:45;;;;;;;0.20;0.20;;;3.80;99.90;;;;;;5116481;28;20153;-76
2021/01/14 09:53:10;;;;;;;0.40;0.40;;;3.90;99.90;;;;;;5115616;28;20501;-76
2021/01/14 09:55:37;;;;;;;0.30;0.30;;;3.90;99.90;;;;;;5115418;28;20216;-76
2021/01/14 09:58:03;;;;;;;0.20;0.20;;;4.00;99.90;;;;;;5115659;28;20176;-77
2021/01/14 10:00:31;;;;;;;0.20;0.20;;;4.10;99.90;;;;;;5104973;27;20169;-75
2021/01/14 10:03:08;;;;;;;0.30;0.30;;;4.10;99.90;;;;;;5084546;27;20170;-74
2021/01/14 10:05:35;;;;;;;0.47;0.47;;;4.00;99.90;;;;;;5101143;28;20246;-75
2021/01/14 10:08:08;;;;;;;0.22;0.22;;;4.00;99.90;;;;;;5077063;28;20532;-74
2021/01/14 10:10:33;;;;;;;0.20;0.20;;;4.10;99.90;;;;;;5086295;28;20192;-75
2021/01/14 10:12:59;;;;;;;0.95;0.95;;;4.10;99.90;;;;;;5114671;28;20638;-75
2021/01/14 10:15:25;;;;;;;0.28;0.28;;;4.10;99.90;;;;;;5115431;28;20205;-75
2021/01/14 10:17:52;;;;;;;1.10;1.00;;;4.00;99.90;;;;;;5115635;28;20153;-75
2021/01/14 10:20:18;;;;;;;0.28;0.28;;;3.90;99.90;;;;;;5115837;28;20172;-75
2021/01/14 10:22:53;;;;;;;2.22;0.80;;;3.80;99.90;;;;;;5115178;28;20169;-75
2021/01/14 10:25:20;;;;;;;0.20;0.20;;;3.80;99.90;;;;;;5115151;28;20268;-75
2021/01/14 10:28:03;;;;;;;0.25;0.25;;;3.70;99.90;;;;;;5097253;28;20244;-75
2021/01/14 10:30:30;;;;;;;0.10;0.10;;;4.00;99.90;;;;;;5115838;28;20153;-76
2021/01/14 10:33:05;;;;;;;2.63;1.38;;;3.90;99.90;;;;;;5096804;28;20566;-76
2021/01/14 10:35:33;;;;;;;0.20;0.20;;;3.80;99.90;;;;;;5115168;28;20287;-76
2021/01/14 10:38:06;;;;;;;4.88;2.88;;;3.70;99.90;;;;;;5115490;28;20558;-76
2021/01/14 10:40:37;;;;;;;0.30;0.30;;;3.70;99.90;;;;;;5114608;28;20176;-76
2021/01/14 10:43:04;;;;;;;0.30;0.30;;;3.80;99.90;;;;;;5114800;28;20161;-75
2021/01/14 10:45:33;;;;;;;3.10;1.65;;;3.90;99.90;;;;;;5114959;28;20234;-76
2021/01/14 10:48:34;;;;;;;1.48;1.00;;;3.90;99.90;;;;;;5120597;27;20229;-75
2021/01/14 10:51:00;;;;;;;0.20;0.20;;;3.90;99.90;;;;;;5112334;27;20186;-76
2021/01/14 10:53:31;;;;;;;0.20;0.20;;;4.10;99.90;;;;;;5116929;27;20165;-76
2021/01/14 10:56:07;;;;;;;0.20;0.20;;;4.10;99.90;;;;;;5120210;27;20192;-75
2021/01/14 10:58:34;;;;;;;0.85;0.52;;;4.20;99.90;;;;;;5133256;27;20635;-75
2021/01/14 11:01:00;;;;;;;0.20;0.20;;;4.50;99.90;;;;;;5134101;27;20606;-75
2021/01/14 11:03:28;;;;;;;0.95;0.95;;;4.70;99.90;;;;;;5134109;27;20165;-75
2021/01/14 11:05:58;;;;;;;0.20;0.20;;;4.60;99.90;;;;;;5133887;27;20191;-75
2021/01/14 11:08:26;;;;;;;0.40;0.40;;;4.60;99.90;;;;;;5115324;27;20535;-75
2021/01/14 11:11:12;;;;;;;0.30;0.30;;;4.40;99.90;;;;;;5103125;28;20181;-76
2021/01/14 11:13:42;;;;;;;1.15;1.05;;;4.50;99.90;;;;;;5113199;28;20165;-76
2021/01/14 11:16:12;;;;;;;0.40;0.40;;;4.60;99.90;;;;;;5093826;28;20206;-76
2021/01/14 11:18:45;;;;;;;0.20;0.20;;;4.50;99.90;;;;;;5112833;28;20177;-76
2021/01/14 11:21:12;;;;;;;0.50;0.50;;;4.50;99.90;;;;;;5119834;27;20164;-75
2021/01/14 11:23:38;;;;;;;0.65;0.65;;;4.40;99.90;;;;;;5133861;27;20175;-76
2021/01/14 11:26:05;;;;;;;0.20;0.20;;;4.40;99.90;;;;;;5132837;27;20683;-76
2021/01/14 11:28:32;;;;;;;0.68;0.68;;;4.50;99.90;;;;;;5115204;27;20237;-76
2021/01/14 11:30:59;;;;;;;0.20;0.20;;;4.60;99.90;;;;;;5134114;27;20157;-76
2021/01/14 11:33:26;;;;;;;0.52;0.52;;;4.70;99.90;;;;;;5133379;27;20291;-76
2021/01/14 11:35:52;;;;;;;0.38;0.38;;;4.60;99.90;;;;;;5133010;27;20230;-77
2021/01/14 11:38:18;;;;;;;13.40;1.17;;;4.80;99.90;;;;;;5133834;27;20168;-76
2021/01/14 11:40:46;;;;;;;4.18;0.63;;;4.70;99.90;;;;;;5123210;27;20182;-76
2021/01/14 11:43:12;;;;;;;0.77;0.77;;;4.70;99.90;;;;;;5113447;28;20153;-76
2021/01/14 11:45:39;;;;;;;0.20;0.20;;;4.80;99.90;;;;;;5113406;28;20690;-76
2021/01/14 11:48:05;;;;;;;0.20;0.20;;;4.80;99.90;;;;;;5095825;28;20688;-76
2021/01/14 11:50:31;;;;;;;0.20;0.20;;;4.80;99.90;;;;;;5113568;28;20183;-75
2021/01/14 11:52:57;;;;;;;0.20;0.20;;;4.70;99.90;;;;;;5113218;28;20244;-76
2021/01/14 11:55:22;;;;;;;1.02;1.02;;;4.70;99.90;;;;;;5095060;28;20217;-75
2021/01/14 11:57:48;;;;;;;0.50;0.50;;;4.60;99.90;;;;;;5113771;28;20219;-77
2021/01/14 12:00:14;;;;;;;0.20;0.20;;;4.60;99.90;;;;;;5113203;28;20189;-75
2021/01/14 12:02:40;;;;;;;0.20;0.20;;;4.60;99.90;;;;;;5112915;28;20565;-76
2021/01/14 12:05:06;;;;;;;0.20;0.20;;;4.70;99.90;;;;;;5113756;28;20193;-76
2021/01/14 12:07:32;;;;;;;0.20;0.20;;;4.60;99.90;;;;;;5113569;28;20248;-75
2021/01/14 12:09:58;;;;;;;0.20;0.20;;;4.40;99.90;;;;;;5112249;28;20204;-75
2021/01/14 12:12:24;;;;;;;0.20;0.20;;;4.40;99.90;;;;;;5112960;28;20658;-75
2021/01/14 12:14:50;;;;;;;0.20;0.20;;;4.40;99.90;;;;;;5112969;28;20211;-75
2021/01/14 12:17:15;;;;;;;0.45;0.35;;;4.40;99.90;;;;;;5113439;28;20154;-73
2021/01/14 12:19:41;;;;;;;2.00;0.82;;;4.50;99.90;;;;;;5112900;28;20161;-76
2021/01/14 12:22:07;;;;;;;0.75;0.35;;;4.60;99.90;;;;;;5112921;28;20233;-76
2021/01/14 12:24:33;;;;;;;1.30;1.10;;;4.80;99.90;;;;;;5113043;28;20246;-77
2021/01/14 12:26:59;;;;;;;0.75;0.45;;;4.90;99.90;;;;;;5113474;28;20222;-76
2021/01/14 12:29:25;;;;;;;0.50;0.50;;;4.60;99.90;;;;;;5113027;28;20161;-75
2021/01/14 12:31:52;;;;;;;0.77;0.77;;;4.40;99.90;;;;;;5113129;28;20169;-77
2021/01/14 12:34:18;;;;;;;0.20;0.20;;;4.30;99.90;;;;;;5094257;28;20305;-76
2021/01/14 12:36:44;;;;;;;0.30;0.30;;;4.40;99.90;;;;;;5113311;28;20241;-75
2021/01/14 12:39:10;;;;;;;2.17;0.65;;;4.30;99.90;;;;;;5112466;28;20251;-77
2021/01/14 12:41:36;;;;;;;10.98;0.70;;;4.20;99.90;;;;;;5112456;28;20260;-75
2021/01/14 12:44:03;;;;;;;0.47;0.47;;;4.20;99.90;;;;;;5110447;28;20641;-76
2021/01/14 12:46:37;;;;;;;6.15;2.67;;;4.00;99.90;;;;;;5114597;28;20188;-76
2021/01/14 12:49:03;;;;;;;0.73;0.73;;;4.20;99.90;;;;;;5133466;27;20271;-77
2021/01/14 12:51:29;;;;;;;2.33;2.22;;;4.30;99.90;;;;;;5115025;28;20525;-77
2021/01/14 12:53:55;;;;;;;0.95;0.93;;;4.30;99.90;;;;;;5133394;28;20188;-76
2021/01/14 12:56:20;;;;;;;0.20;0.20;;;4.40;99.90;;;;;;5132673;28;20663;-76
2021/01/14 12:58:46;;;;;;;0.20;0.20;;;4.40;99.90;;;;;;5133440;28;20203;-76
2021/01/14 13:01:12;;;;;;;0.28;0.28;;;4.40;99.90;;;;;;5133322;27;20244;-76
2021/01/14 13:03:37;;;;;;;0.32;0.32;;;4.40;99.90;;;;;;5133596;28;20177;-76
2021/01/14 13:06:03;;;;;;;0.28;0.28;;;4.70;99.90;;;;;;5132812;27;20189;-76
2021/01/14 13:08:29;;;;;;;3.40;1.40;;;4.70;99.90;;;;;;5133231;28;20165;-76
2021/01/14 13:10:54;;;;;;;0.80;0.80;;;4.70;99.90;;;;;;5121336;28;20183;-77